地図

経路データ

SID SEASON NUMBER BASIN SUBBASIN NAME ISO_TIME NATURE LAT LON WMO_WIND WMO_PRES WMO_AGENCY TRACK_TYPE DIST2LAND LANDFALL IFLAG USA_AGENCY USA_ATCF_ID USA_LAT USA_LON USA_RECORD USA_STATUS USA_WIND USA_PRES USA_SSHS USA_R34_NE USA_R34_SE USA_R34_SW USA_R34_NW USA_R50_NE USA_R50_SE USA_R50_SW USA_R50_NW USA_R64_NE USA_R64_SE USA_R64_SW USA_R64_NW USA_POCI USA_ROCI USA_RMW USA_EYE TOKYO_LAT TOKYO_LON TOKYO_GRADE TOKYO_WIND TOKYO_PRES TOKYO_R50_DIR TOKYO_R50_LONG TOKYO_R50_SHORT TOKYO_R30_DIR TOKYO_R30_LONG TOKYO_R30_SHORT TOKYO_LAND CMA_LAT CMA_LON CMA_CAT CMA_WIND CMA_PRES HKO_LAT HKO_LON HKO_CAT HKO_WIND HKO_PRES NEWDELHI_LAT NEWDELHI_LON NEWDELHI_GRADE NEWDELHI_WIND NEWDELHI_PRES NEWDELHI_CI NEWDELHI_DP NEWDELHI_POCI REUNION_LAT REUNION_LON REUNION_TYPE REUNION_WIND REUNION_PRES REUNION_TNUM REUNION_CI REUNION_RMW REUNION_R34_NE REUNION_R34_SE REUNION_R34_SW REUNION_R34_NW REUNION_R50_NE REUNION_R50_SE REUNION_R50_SW REUNION_R50_NW REUNION_R64_NE REUNION_R64_SE REUNION_R64_SW REUNION_R64_NW BOM_LAT BOM_LON BOM_TYPE BOM_WIND BOM_PRES BOM_TNUM BOM_CI BOM_RMW BOM_R34_NE BOM_R34_SE BOM_R34_SW BOM_R34_NW BOM_R50_NE BOM_R50_SE BOM_R50_SW BOM_R50_NW BOM_R64_NE BOM_R64_SE BOM_R64_SW BOM_R64_NW BOM_ROCI BOM_POCI BOM_EYE BOM_POS_METHOD BOM_PRES_METHOD NADI_LAT NADI_LON NADI_CAT NADI_WIND NADI_PRES WELLINGTON_LAT WELLINGTON_LON WELLINGTON_WIND WELLINGTON_PRES DS824_LAT DS824_LON DS824_STAGE DS824_WIND DS824_PRES TD9636_LAT TD9636_LON TD9636_STAGE TD9636_WIND TD9636_PRES TD9635_LAT TD9635_LON TD9635_WIND TD9635_PRES TD9635_ROCI NEUMANN_LAT NEUMANN_LON NEUMANN_CLASS NEUMANN_WIND NEUMANN_PRES MLC_LAT MLC_LON MLC_CLASS MLC_WIND MLC_PRES USA_GUST BOM_GUST BOM_GUST_PER REUNION_GUST REUNION_GUST_PER USA_SEAHGT USA_SEARAD_NE USA_SEARAD_SE USA_SEARAD_SW USA_SEARAD_NW STORM_SPEED STORM_DIR
1942259N16137 1942 51 WP MM NOT_NAMED 1942-09-16 09:00:00 NR 15.7000 137.100 main 1312 1312 __________O___ -1 15.7000 137.100 4 21 14
1942259N16137 1942 51 WP MM NOT_NAMED 1942-09-16 12:00:00 NR 16.7035 137.355 main 1376 1376 __________P___ -1 16.7035 137.355 4 20 14
1942259N16137 1942 51 WP MM NOT_NAMED 1942-09-16 15:00:00 NR 17.6756 137.599 main 1438 1438 __________P___ -1 17.6756 137.599 4 19 13
1942259N16137 1942 51 WP MM NOT_NAMED 1942-09-16 18:00:00 NR 18.5849 137.819 main 1500 1488 __________P___ -1 18.5849 137.819 4 18 12
1942259N16137 1942 51 WP MM NOT_NAMED 1942-09-16 21:00:00 NR 19.4000 138.000 main 1488 1424 __________O___ -1 19.4000 138.000 4 16 11
1942259N16137 1942 51 WP MM NOT_NAMED 1942-09-17 00:00:00 NR 20.1011 138.131 main 1424 1372 __________P___ -1 20.1011 138.131 4 13 9
1942259N16137 1942 51 WP MM NOT_NAMED 1942-09-17 03:00:00 NR 20.7120 138.219 main 1372 1329 __________P___ -1 20.7120 138.219 4 12 6
1942259N16137 1942 51 WP MM NOT_NAMED 1942-09-17 06:00:00 NR 21.2668 138.272 main 1319 1271 __________P___ -1 21.2668 138.272 4 11 4
1942259N16137 1942 51 WP MM NOT_NAMED 1942-09-17 09:00:00 NR 21.8000 138.300 main 1271 1224 __________O___ -1 21.8000 138.300 4 11 3
1942259N16137 1942 51 WP MM NOT_NAMED 1942-09-17 12:00:00 NR 22.3238 138.334 main 1224 1177 __________P___ -1 22.3238 138.334 4 10 2
1942259N16137 1942 51 WP MM NOT_NAMED 1942-09-17 15:00:00 NR 22.8401 138.345 main 1177 1122 __________P___ -1 22.8401 138.345 4 11 0
1942259N16137 1942 51 WP MM NOT_NAMED 1942-09-17 18:00:00 NR 23.3863 138.333 main 1122 1068 __________P___ -1 23.3863 138.333 4 12 358
1942259N16137 1942 51 WP MM NOT_NAMED 1942-09-17 21:00:00 NR 24.0000 138.300 main 1068 998 __________O___ -1 24.0000 138.300 4 14 356
1942259N16137 1942 51 WP MM NOT_NAMED 1942-09-18 00:00:00 NR 24.7323 138.232 main 998 909 __________P___ -1 24.7323 138.232 4 15 355
1942259N16137 1942 51 WP MM NOT_NAMED 1942-09-18 03:00:00 NR 25.5328 138.144 main 909 822 __________P___ -1 25.5328 138.144 4 17 355
1942259N16137 1942 51 WP MM NOT_NAMED 1942-09-18 06:00:00 NR 26.3668 138.060 main 811 723 __________P___ -1 26.3668 138.060 4 17 355
1942259N16137 1942 51 WP MM NOT_NAMED 1942-09-18 09:00:00 NR 27.2000 138.000 main 723 656 __________O___ -1 27.2000 138.000 4 15 356
1942259N16137 1942 51 WP MM NOT_NAMED 1942-09-18 12:00:00 NR 27.8766 137.925 main 645 582 __________P___ -1 27.8766 137.925 4 14 356
1942259N16137 1942 51 WP MM NOT_NAMED 1942-09-18 15:00:00 NR 28.5623 137.888 main 571 498 __________P___ -1 28.5623 137.888 4 15 1
1942259N16137 1942 51 WP MM NOT_NAMED 1942-09-18 18:00:00 NR 29.3418 137.932 main 498 417 __________P___ -1 29.3418 137.932 4 18 6
1942259N16137 1942 51 WP MM NOT_NAMED 1942-09-18 21:00:00 NR 30.3000 138.100 main 408 322 __________O___ -1 30.3000 138.100 4 23 10
1942259N16137 1942 51 WP MM NOT_NAMED 1942-09-19 00:00:00 NR 31.5768 138.369 main 315 189 __________P___ -1 31.5768 138.369 4 28 12
1942259N16137 1942 51 WP MM NOT_NAMED 1942-09-19 03:00:00 NR 33.0268 138.784 main 178 35 __________P___ -1 33.0268 138.784 4 31 16
1942259N16137 1942 51 WP MM NOT_NAMED 1942-09-19 06:00:00 NR 34.5384 139.358 main 42 0 __________P___ -1 34.5384 139.358 4 32 20
1942259N16137 1942 51 WP MM NOT_NAMED 1942-09-19 09:00:00 NR 36.0000 140.100 main 0 0 __________O___ -1 36.0000 140.100 4 31 26
1942259N16137 1942 51 WP MM NOT_NAMED 1942-09-19 12:00:00 NR 37.3251 141.015 main 0 0 __________P___ -1 37.3251 141.015 4 30 32
1942259N16137 1942 51 WP MM NOT_NAMED 1942-09-19 15:00:00 NR 38.5260 142.076 main 48 44 __________P___ -1 38.5260 142.076 4 29 37
1942259N16137 1942 51 WP MM NOT_NAMED 1942-09-19 18:00:00 NR 39.6389 143.250 main 103 103 __________P___ -1 39.6389 143.250 4 29 41
1942259N16137 1942 51 WP MM NOT_NAMED 1942-09-19 21:00:00 NR 40.7000 144.500 main 171 __________O___ -1 40.7000 144.500 4 28 42

デジタル台風データ・検索

IBTrACS Databaseについて

本データベースは、米国NOAAが公開する1842年以降の世界の熱帯低気圧のベストトラックデータアーカイブInternational Best Track Archive for Climate Stewardship (IBTrACS)を、ウェブで閲覧しやすい形式に変換したものです。

最終更新日:2021-10-08